Aeroporto :
LOGIN :

Iscrizione | Disclaimer

   EN    FR    IT 

 










Sommario :    VFR   VFR Marginale   IFR   IFR Intensivo   IFR Molto Intensivo
Visibilità : 
Base nubi : 
>= 8 km
>= 3000ft
5 / 8 km
1000 / 3000 ft
1500m / 5 km
500 / 1000 ft
800 / 1500m
200 / 500 ft
< 800m
< 200 ft
Simboli :   Temporali  Nebbia  Neve Forte  Precipitazioni Forti  Vento > 20 kt
SIGMETs :   Varie  Temporali  Ghiacco  Turbolenza  Onda orograficha  Ceneri Vulcaniche






- Altitudine del aeroporto : 75 ft
- Codice IATA : YEO


EGDY - RNAS Yeovilton

ULTIMO METAR :
  • 111950Z 25011KT 9999 FEW040 06/02 Q1004 TEMPO 7000 -SHRA BKN024CB RMK BLU TEMPO WHT

METARs OBSOLETI :
  • 111920Z 26012KT 9999 FEW020 07/03 Q1004 TEMPO 7000 -SHRA BKN024CB RMK BLU TEMPO WHT
  • 111850Z 25010KT 9999 SCT040 07/03 Q1004 TEMPO 7000 -SHRA BKN024CB RMK BLU TEMPO WHT
  • 111820Z 25010KT 9999 SCT040 07/03 Q1004 TEMPO 7000 -SHRA BKN024CB RMK BLU TEMPO WHT
  • 111750Z 26011KT 9999 -SHRA FEW025CB SCT040 07/03 Q1004 TEMPO 7000 -SHRA BKN024CB RMK BLU TEMPO WHT
  • 111721Z 26012KT 9999 FEW025CB SCT040 07/03 Q1004 TEMPO 7000 -SHRA BKN024 RMK BLU TEMPO WHT
  • 111650Z 28008KT 9999 FEW025CB SCT030 BKN050 07/04 Q1004 TEMPO 7000 -SHRA BKN024 RMK BLU TEMPO WHT

TAF TAF EGDY
Valido dal 11 a 18 ore il 12 a 03 ore UTC


111736Z 1118/1203 26010G20KT 9999 SCT040
PROB40
TEMPO 1118/1203 7000 -SHRA SCT030
PROB30
TEMPO 1118/1124 5000 SHRAGS BKN022CB



MetMap, La meteo Aeronautica in un colpo d'occhio ! - Copyright ORBIFLY Dicembre 2007 - Disclaimer

ORBIFLY MET'MAP TEAM :

Programmazione e sviluppo : Alexandra Zaïnal
Concezione e sviluppo : Baudouin d'Aumeries
Co-Programmazione e sviluppo : Marc-Olivier Méhu
Supporto tecnico e logistico : Manuel Goepfert
Aiuto per la traduzione : Arnaldo La Scala

Contatto : metmap@orbifly.com




FONTI E CREDITI :

   NOAA